首页
METAR-TAF:

METAR-TAF

机场 :

门多萨, 阿根廷

纬度: 32-50S, 经度: 068-47W, 海拔: 705米

当前天气观测

该预报发布于1小时和13分钟前的18:00 UTC
风速5节,风向
温度 19°C
湿度 10%
气压 1014 hPa
能见度10公里或以上
1500米以下无云,无积雨云

METAR: SAME 101800Z 09005KT CAVOK 19/M13 Q1014

时间: 16:13 (19:13 UTC)

预报

该预报发布于2小时和13分钟前的17:00 UTC
预报有效从10日的 18点(UTC)到 11日的 18点(UTC)
风速10节,风向东南
能见度10公里或以上
1500米以下无云,无积雨云
成为
从 11日的 00点(UTC)到 11日的 02点(UTC)
风速5节,风向东南

TAF: SAME 101700Z 1018/1118 14010KT CAVOK TX20/1020Z TN00/1111Z BECMG 1100/1102 14005KT

超过4000个机场的气象观测和天气预报(METAR&TAF报告)。

可查询的气象台以黄色和红色小点在地图上表示。

将鼠标移到小点上方,可查看气象台名称。

然后点击查看天气观测和预报。

如需切换地图:点击带黑十字的绿色按钮放大地图;点击带横线的绿色按钮缩小地图;或者点击绿色箭头查看邻近地区的地图。


METAR-TAF: